sensor_id;sensor_type;location;lat;lon;timestamp;pressure;altitude;pressure_sealevel;temperature;humidity
54262;BME280;40174;52.364;6.452;2024-02-26T00:00:00;99818.50;;;3.26;100.00
54262;BME280;40174;52.364;6.452;2024-02-26T00:02:31;99824.44;;;3.28;100.00
54262;BME280;40174;52.364;6.452;2024-02-26T00:05:04;99825.59;;;3.24;100.00
54262;BME280;40174;52.364;6.452;2024-02-26T00:07:31;99825.50;;;3.26;100.00
54262;BME280;40174;52.364;6.452;2024-02-26T00:09:57;99828.94;;;3.26;100.00
54262;BME280;40174;52.364;6.452;2024-02-26T00:12:24;99821.09;;;3.26;100.00
54262;BME280;40174;52.364;6.452;2024-02-26T00:14:50;99821.75;;;3.30;100.00
54262;BME280;40174;52.364;6.452;2024-02-26T00:17:18;99822.50;;;3.32;100.00
54262;BME280;40174;52.364;6.452;2024-02-26T00:19:46;99830.50;;;3.29;100.00
54262;BME280;40174;52.364;6.452;2024-02-26T00:22:12;99824.66;;;3.25;100.00
54262;BME280;40174;52.364;6.452;2024-02-26T00:24:40;99834.16;;;3.26;100.00
54262;BME280;40174;52.364;6.452;2024-02-26T00:27:06;99821.41;;;3.22;100.00
54262;BME280;40174;52.364;6.452;2024-02-26T00:29:33;99830.72;;;3.26;100.00
54262;BME280;40174;52.364;6.452;2024-02-26T00:31:59;99838.66;;;3.24;100.00
54262;BME280;40174;52.364;6.452;2024-02-26T00:34:26;99839.47;;;3.25;100.00
54262;BME280;40174;52.364;6.452;2024-02-26T00:36:54;99842.75;;;3.28;100.00
54262;BME280;40174;52.364;6.452;2024-02-26T00:39:21;99852.13;;;3.31;100.00
54262;BME280;40174;52.364;6.452;2024-02-26T00:41:47;99856.31;;;3.33;100.00
54262;BME280;40174;52.364;6.452;2024-02-26T00:44:14;99849.31;;;3.34;100.00
54262;BME280;40174;52.364;6.452;2024-02-26T00:46:41;99841.59;;;3.32;100.00
54262;BME280;40174;52.364;6.452;2024-02-26T00:49:07;99845.88;;;3.33;100.00
54262;BME280;40174;52.364;6.452;2024-02-26T00:51:34;99837.41;;;3.30;100.00
54262;BME280;40174;52.364;6.452;2024-02-26T00:54:02;99844.22;;;3.32;100.00
54262;BME280;40174;52.364;6.452;2024-02-26T00:56:28;99843.38;;;3.32;100.00
54262;BME280;40174;52.364;6.452;2024-02-26T00:58:58;99847.31;;;3.25;100.00
54262;BME280;40174;52.364;6.452;2024-02-26T01:01:24;99845.22;;;3.17;100.00
54262;BME280;40174;52.364;6.452;2024-02-26T01:03:51;99848.66;;;3.18;100.00
54262;BME280;40174;52.364;6.452;2024-02-26T01:06:17;99847.63;;;3.20;100.00
54262;BME280;40174;52.364;6.452;2024-02-26T01:08:44;99848.66;;;3.18;100.00
54262;BME280;40174;52.364;6.452;2024-02-26T01:11:12;99849.78;;;3.13;100.00
54262;BME280;40174;52.364;6.452;2024-02-26T01:13:39;99863.50;;;3.17;100.00
54262;BME280;40174;52.364;6.452;2024-02-26T01:16:06;99860.97;;;3.16;100.00
54262;BME280;40174;52.364;6.452;2024-02-26T01:18:32;99861.38;;;3.09;100.00
54262;BME280;40174;52.364;6.452;2024-02-26T01:20:59;99858.56;;;3.12;100.00
54262;BME280;40174;52.364;6.452;2024-02-26T01:23:25;99848.97;;;3.13;100.00
54262;BME280;40174;52.364;6.452;2024-02-26T01:25:52;99861.81;;;3.16;100.00
54262;BME280;40174;52.364;6.452;2024-02-26T01:28:20;99862.00;;;3.13;100.00
54262;BME280;40174;52.364;6.452;2024-02-26T01:30:46;99869.84;;;3.13;100.00
54262;BME280;40174;52.364;6.452;2024-02-26T01:33:13;99855.97;;;3.12;100.00
54262;BME280;40174;52.364;6.452;2024-02-26T01:35:40;99856.03;;;3.11;100.00
54262;BME280;40174;52.364;6.452;2024-02-26T01:38:06;99848.44;;;3.08;100.00
54262;BME280;40174;52.364;6.452;2024-02-26T01:40:33;99852.69;;;3.09;100.00
54262;BME280;40174;52.364;6.452;2024-02-26T01:42:59;99851.13;;;3.06;100.00
54262;BME280;40174;52.364;6.452;2024-02-26T01:45:27;99851.22;;;3.05;100.00
54262;BME280;40174;52.364;6.452;2024-02-26T01:47:55;99844.41;;;3.02;100.00
54262;BME280;40174;52.364;6.452;2024-02-26T01:50:22;99837.63;;;3.00;100.00
54262;BME280;40174;52.364;6.452;2024-02-26T01:52:50;99833.53;;;2.96;100.00
54262;BME280;40174;52.364;6.452;2024-02-26T01:55:17;99844.94;;;2.95;100.00
54262;BME280;40174;52.364;6.452;2024-02-26T01:57:45;99844.63;;;2.99;100.00
54262;BME280;40174;52.364;6.452;2024-02-26T02:00:14;99839.63;;;2.96;100.00
54262;BME280;40174;52.364;6.452;2024-02-26T02:02:43;99834.50;;;2.95;100.00
54262;BME280;40174;52.364;6.452;2024-02-26T02:05:13;99823.31;;;2.92;100.00
54262;BME280;40174;52.364;6.452;2024-02-26T02:07:40;99829.56;;;2.90;100.00
54262;BME280;40174;52.364;6.452;2024-02-26T02:10:08;99824.63;;;2.85;100.00
54262;BME280;40174;52.364;6.452;2024-02-26T02:12:35;99837.47;;;2.88;100.00
54262;BME280;40174;52.364;6.452;2024-02-26T02:15:04;99847.19;;;2.86;100.00
54262;BME280;40174;52.364;6.452;2024-02-26T02:17:31;99858.56;;;2.85;100.00
54262;BME280;40174;52.364;6.452;2024-02-26T02:19:59;99863.66;;;2.87;100.00
54262;BME280;40174;52.364;6.452;2024-02-26T02:22:27;99871.41;;;2.88;100.00
54262;BME280;40174;52.364;6.452;2024-02-26T02:24:54;99868.81;;;2.88;100.00
54262;BME280;40174;52.364;6.452;2024-02-26T02:27:21;99881.56;;;2.93;100.00
54262;BME280;40174;52.364;6.452;2024-02-26T02:29:48;99877.47;;;2.89;100.00
54262;BME280;40174;52.364;6.452;2024-02-26T02:32:16;99874.75;;;2.90;100.00
54262;BME280;40174;52.364;6.452;2024-02-26T02:34:44;99875.31;;;2.96;100.00
54262;BME280;40174;52.364;6.452;2024-02-26T02:37:11;99872.69;;;2.96;100.00
54262;BME280;40174;52.364;6.452;2024-02-26T02:39:39;99877.28;;;2.92;100.00
54262;BME280;40174;52.364;6.452;2024-02-26T02:42:07;99873.28;;;2.86;100.00
54262;BME280;40174;52.364;6.452;2024-02-26T02:44:34;99872.16;;;2.90;100.00
54262;BME280;40174;52.364;6.452;2024-02-26T02:47:01;99876.47;;;2.91;100.00
54262;BME280;40174;52.364;6.452;2024-02-26T02:49:27;99874.56;;;2.94;100.00
54262;BME280;40174;52.364;6.452;2024-02-26T02:51:54;99871.50;;;2.87;100.00
54262;BME280;40174;52.364;6.452;2024-02-26T02:54:22;99881.75;;;2.90;100.00
54262;BME280;40174;52.364;6.452;2024-02-26T02:56:50;99880.19;;;2.87;100.00
54262;BME280;40174;52.364;6.452;2024-02-26T02:59:17;99885.22;;;2.90;100.00
54262;BME280;40174;52.364;6.452;2024-02-26T03:01:44;99887.81;;;2.90;100.00
54262;BME280;40174;52.364;6.452;2024-02-26T03:04:10;99894.00;;;2.89;100.00
54262;BME280;40174;52.364;6.452;2024-02-26T03:06:37;99900.78;;;2.92;100.00
54262;BME280;40174;52.364;6.452;2024-02-26T03:09:03;99901.69;;;2.91;100.00
54262;BME280;40174;52.364;6.452;2024-02-26T03:11:30;99904.22;;;2.92;100.00
54262;BME280;40174;52.364;6.452;2024-02-26T03:13:58;99903.47;;;2.90;100.00
54262;BME280;40174;52.364;6.452;2024-02-26T03:16:25;99914.75;;;2.91;100.00
54262;BME280;40174;52.364;6.452;2024-02-26T03:18:51;99919.16;;;2.90;100.00
54262;BME280;40174;52.364;6.452;2024-02-26T03:21:18;99918.31;;;2.90;100.00
54262;BME280;40174;52.364;6.452;2024-02-26T03:23:45;99921.66;;;2.92;100.00
54262;BME280;40174;52.364;6.452;2024-02-26T03:26:11;99915.41;;;2.95;100.00
54262;BME280;40174;52.364;6.452;2024-02-26T03:28:40;99923.69;;;3.01;100.00
54262;BME280;40174;52.364;6.452;2024-02-26T03:31:08;99925.06;;;3.07;100.00
54262;BME280;40174;52.364;6.452;2024-02-26T03:33:35;99920.34;;;2.99;100.00
54262;BME280;40174;52.364;6.452;2024-02-26T03:36:03;99931.53;;;3.01;100.00
54262;BME280;40174;52.364;6.452;2024-02-26T03:38:29;99932.06;;;3.06;100.00
54262;BME280;40174;52.364;6.452;2024-02-26T03:40:56;99927.13;;;3.02;100.00
54262;BME280;40174;52.364;6.452;2024-02-26T03:43:23;99930.56;;;3.02;100.00
54262;BME280;40174;52.364;6.452;2024-02-26T03:45:49;99931.69;;;2.98;100.00
54262;BME280;40174;52.364;6.452;2024-02-26T03:48:17;99935.16;;;2.99;100.00
54262;BME280;40174;52.364;6.452;2024-02-26T03:50:44;99939.66;;;2.97;100.00
54262;BME280;40174;52.364;6.452;2024-02-26T03:53:11;99941.44;;;2.96;100.00
54262;BME280;40174;52.364;6.452;2024-02-26T03:55:38;99945.50;;;3.00;100.00
54262;BME280;40174;52.364;6.452;2024-02-26T03:58:07;99946.34;;;3.01;100.00
54262;BME280;40174;52.364;6.452;2024-02-26T04:00:33;99943.84;;;2.99;100.00
54262;BME280;40174;52.364;6.452;2024-02-26T04:03:00;99942.13;;;2.98;100.00
54262;BME280;40174;52.364;6.452;2024-02-26T04:05:28;99942.13;;;2.98;100.00
54262;BME280;40174;52.364;6.452;2024-02-26T04:07:55;99947.38;;;2.98;100.00
54262;BME280;40174;52.364;6.452;2024-02-26T04:10:21;99950.84;;;2.99;100.00
54262;BME280;40174;52.364;6.452;2024-02-26T04:12:48;99958.56;;;3.00;100.00
54262;BME280;40174;52.364;6.452;2024-02-26T04:15:15;99956.69;;;3.02;100.00
54262;BME280;40174;52.364;6.452;2024-02-26T04:17:42;99963.41;;;3.06;100.00
54262;BME280;40174;52.364;6.452;2024-02-26T04:20:13;99962.66;;;3.04;100.00
54262;BME280;40174;52.364;6.452;2024-02-26T04:22:42;99970.69;;;3.01;100.00
54262;BME280;40174;52.364;6.452;2024-02-26T04:25:08;99969.00;;;3.00;100.00
54262;BME280;40174;52.364;6.452;2024-02-26T04:27:36;99968.16;;;3.00;100.00
54262;BME280;40174;52.364;6.452;2024-02-26T04:30:04;99965.47;;;3.01;100.00
54262;BME280;40174;52.364;6.452;2024-02-26T04:32:31;99961.16;;;3.00;100.00
54262;BME280;40174;52.364;6.452;2024-02-26T04:34:58;99956.16;;;2.97;100.00
54262;BME280;40174;52.364;6.452;2024-02-26T04:37:25;99958.47;;;3.02;100.00
54262;BME280;40174;52.364;6.452;2024-02-26T04:39:58;99967.78;;;3.06;100.00
54262;BME280;40174;52.364;6.452;2024-02-26T04:42:24;99969.66;;;3.04;100.00
54262;BME280;40174;52.364;6.452;2024-02-26T04:44:51;99972.34;;;3.02;100.00
54262;BME280;40174;52.364;6.452;2024-02-26T04:47:17;99971.50;;;3.02;100.00
54262;BME280;40174;52.364;6.452;2024-02-26T04:49:44;99975.72;;;3.04;100.00
54262;BME280;40174;52.364;6.452;2024-02-26T04:52:11;99974.88;;;3.04;100.00
54262;BME280;40174;52.364;6.452;2024-02-26T04:54:38;99980.94;;;3.04;100.00
54262;BME280;40174;52.364;6.452;2024-02-26T04:57:06;99987.09;;;3.03;100.00
54262;BME280;40174;52.364;6.452;2024-02-26T04:59:33;99994.72;;;3.06;100.00
54262;BME280;40174;52.364;6.452;2024-02-26T05:01:59;99998.75;;;3.12;100.00
54262;BME280;40174;52.364;6.452;2024-02-26T05:04:26;99993.53;;;3.12;100.00
54262;BME280;40174;52.364;6.452;2024-02-26T05:06:52;100005.72;;;3.11;100.00
54262;BME280;40174;52.364;6.452;2024-02-26T05:09:19;100003.09;;;3.11;100.00
54262;BME280;40174;52.364;6.452;2024-02-26T05:11:46;100005.72;;;3.11;100.00
54262;BME280;40174;52.364;6.452;2024-02-26T05:14:14;99996.13;;;3.12;100.00
54262;BME280;40174;52.364;6.452;2024-02-26T05:16:41;100003.22;;;3.10;100.00
54262;BME280;40174;52.364;6.452;2024-02-26T05:19:07;100001.34;;;3.12;100.00
54262;BME280;40174;52.364;6.452;2024-02-26T05:21:34;100011.69;;;3.13;100.00
54262;BME280;40174;52.364;6.452;2024-02-26T05:24:00;100005.53;;;3.15;100.00
54262;BME280;40174;52.364;6.452;2024-02-26T05:26:27;100006.28;;;3.17;100.00
54262;BME280;40174;52.364;6.452;2024-02-26T05:28:54;100008.78;;;3.18;100.00
54262;BME280;40174;52.364;6.452;2024-02-26T05:31:26;100008.91;;;3.17;100.00
54262;BME280;40174;52.364;6.452;2024-02-26T05:33:54;100009.72;;;3.17;100.00
54262;BME280;40174;52.364;6.452;2024-02-26T05:36:21;100003.84;;;3.13;100.00
54262;BME280;40174;52.364;6.452;2024-02-26T05:38:48;100013.53;;;3.11;100.00
54262;BME280;40174;52.364;6.452;2024-02-26T05:41:15;100018.59;;;3.15;100.00
54262;BME280;40174;52.364;6.452;2024-02-26T05:43:42;100007.41;;;3.12;100.00
54262;BME280;40174;52.364;6.452;2024-02-26T05:46:08;100015.25;;;3.12;100.00
54262;BME280;40174;52.364;6.452;2024-02-26T05:48:36;100023.91;;;3.13;100.00
54262;BME280;40174;52.364;6.452;2024-02-26T05:51:04;100024.44;;;3.18;100.00
54262;BME280;40174;52.364;6.452;2024-02-26T05:53:31;100036.50;;;3.21;100.00
54262;BME280;40174;52.364;6.452;2024-02-26T05:55:57;100039.19;;;3.19;100.00
54262;BME280;40174;52.364;6.452;2024-02-26T05:58:24;100039.13;;;3.21;100.00
54262;BME280;40174;52.364;6.452;2024-02-26T06:00:51;100050.94;;;3.26;100.00
54262;BME280;40174;52.364;6.452;2024-02-26T06:03:17;100050.19;;;3.24;100.00
54262;BME280;40174;52.364;6.452;2024-02-26T06:05:45;100046.84;;;3.22;100.00
54262;BME280;40174;52.364;6.452;2024-02-26T06:08:12;100052.81;;;3.24;100.00
54262;BME280;40174;52.364;6.452;2024-02-26T06:10:39;100057.28;;;3.22;100.00
54262;BME280;40174;52.364;6.452;2024-02-26T06:13:06;100058.22;;;3.21;100.00
54262;BME280;40174;52.364;6.452;2024-02-26T06:15:32;100062.78;;;3.18;100.00
54262;BME280;40174;52.364;6.452;2024-02-26T06:17:59;100073.25;;;3.18;100.00
54262;BME280;40174;52.364;6.452;2024-02-26T06:20:25;100071.38;;;3.20;100.00
54262;BME280;40174;52.364;6.452;2024-02-26T06:22:53;100071.47;;;3.18;100.00
54262;BME280;40174;52.364;6.452;2024-02-26T06:25:20;100082.75;;;3.19;100.00
54262;BME280;40174;52.364;6.452;2024-02-26T06:27:46;100084.34;;;3.21;100.00
54262;BME280;40174;52.364;6.452;2024-02-26T06:30:13;100072.31;;;3.19;100.00
54262;BME280;40174;52.364;6.452;2024-02-26T06:32:40;100077.63;;;3.17;100.00
54262;BME280;40174;52.364;6.452;2024-02-26T06:35:07;100076.78;;;3.17;100.00
54262;BME280;40174;52.364;6.452;2024-02-26T06:37:35;100073.59;;;3.11;100.00
54262;BME280;40174;52.364;6.452;2024-02-26T06:40:04;100074.28;;;3.15;100.00
54262;BME280;40174;52.364;6.452;2024-02-26T06:42:31;100075.84;;;3.18;100.00
54262;BME280;40174;52.364;6.452;2024-02-26T06:44:58;100072.41;;;3.17;100.00
54262;BME280;40174;52.364;6.452;2024-02-26T06:47:25;100081.91;;;3.18;100.00
54262;BME280;40174;52.364;6.452;2024-02-26T06:49:51;100085.25;;;3.20;100.00
54262;BME280;40174;52.364;6.452;2024-02-26T06:52:18;100091.16;;;3.24;100.00
54262;BME280;40174;52.364;6.452;2024-02-26T06:54:45;100095.53;;;3.23;100.00
54262;BME280;40174;52.364;6.452;2024-02-26T06:57:14;100098.16;;;3.23;100.00
54262;BME280;40174;52.364;6.452;2024-02-26T06:59:41;100097.19;;;3.24;100.00
54262;BME280;40174;52.364;6.452;2024-02-26T07:02:11;100101.41;;;3.27;100.00
54262;BME280;40174;52.364;6.452;2024-02-26T07:04:37;100093.47;;;3.28;100.00
54262;BME280;40174;52.364;6.452;2024-02-26T07:07:04;100095.13;;;3.29;100.00
54262;BME280;40174;52.364;6.452;2024-02-26T07:09:31;100108.94;;;3.31;100.00
54262;BME280;40174;52.364;6.452;2024-02-26T07:11:57;100106.63;;;3.27;100.00
54262;BME280;40174;52.364;6.452;2024-02-26T07:14:25;100103.72;;;3.31;100.00
54262;BME280;40174;52.364;6.452;2024-02-26T07:16:52;100105.59;;;3.29;100.00
54262;BME280;40174;52.364;6.452;2024-02-26T07:19:18;100125.56;;;3.30;100.00
54262;BME280;40174;52.364;6.452;2024-02-26T07:21:45;100117.81;;;3.29;100.00
54262;BME280;40174;52.364;6.452;2024-02-26T07:24:11;100125.66;;;3.29;100.00
54262;BME280;40174;52.364;6.452;2024-02-26T07:26:39;100126.59;;;3.28;100.00
54262;BME280;40174;52.364;6.452;2024-02-26T07:29:06;100127.44;;;3.28;100.00
54262;BME280;40174;52.364;6.452;2024-02-26T07:31:34;100139.66;;;3.28;100.00
54262;BME280;40174;52.364;6.452;2024-02-26T07:34:00;100141.03;;;3.33;100.00
54262;BME280;40174;52.364;6.452;2024-02-26T07:36:27;100134.16;;;3.32;100.00
54262;BME280;40174;52.364;6.452;2024-02-26T07:38:54;100134.25;;;3.31;100.00
54262;BME280;40174;52.364;6.452;2024-02-26T07:41:20;100134.25;;;3.31;100.00
54262;BME280;40174;52.364;6.452;2024-02-26T07:43:47;100146.72;;;3.40;100.00
54262;BME280;40174;52.364;6.452;2024-02-26T07:46:14;100140.47;;;3.43;100.00
54262;BME280;40174;52.364;6.452;2024-02-26T07:48:42;100146.44;;;3.45;100.00
54262;BME280;40174;52.364;6.452;2024-02-26T07:51:08;100140.59;;;3.41;100.00
54262;BME280;40174;52.364;6.452;2024-02-26T07:53:35;100147.47;;;3.42;100.00
54262;BME280;40174;52.364;6.452;2024-02-26T07:56:01;100148.97;;;3.46;100.00
54262;BME280;40174;52.364;6.452;2024-02-26T07:58:28;100153.16;;;3.49;100.00
54262;BME280;40174;52.364;6.452;2024-02-26T08:00:55;100148.16;;;3.46;100.00
54262;BME280;40174;52.364;6.452;2024-02-26T08:03:21;100158.13;;;3.53;100.00
54262;BME280;40174;52.364;6.452;2024-02-26T08:05:50;100159.41;;;3.61;100.00
54262;BME280;40174;52.364;6.452;2024-02-26T08:08:17;100160.28;;;3.61;100.00
54262;BME280;40174;52.364;6.452;2024-02-26T08:10:44;100163.81;;;3.60;100.00
54262;BME280;40174;52.364;6.452;2024-02-26T08:13:10;100164.75;;;3.59;100.00
54262;BME280;40174;52.364;6.452;2024-02-26T08:15:37;100175.19;;;3.59;100.00
54262;BME280;40174;52.364;6.452;2024-02-26T08:18:04;100166.50;;;3.59;100.00
54262;BME280;40174;52.364;6.452;2024-02-26T08:20:31;100175.28;;;3.58;100.00
54262;BME280;40174;52.364;6.452;2024-02-26T08:22:59;100169.84;;;3.61;100.00
54262;BME280;40174;52.364;6.452;2024-02-26T08:25:26;100176.50;;;3.66;100.00
54262;BME280;40174;52.364;6.452;2024-02-26T08:27:52;100173.88;;;3.66;100.00
54262;BME280;40174;52.364;6.452;2024-02-26T08:30:19;100182.75;;;3.64;100.00
54262;BME280;40174;52.364;6.452;2024-02-26T08:32:47;100180.88;;;3.66;100.00
54262;BME280;40174;52.364;6.452;2024-02-26T08:35:13;100183.31;;;3.69;100.00
54262;BME280;40174;52.364;6.452;2024-02-26T08:37:40;100187.69;;;3.68;100.00
54262;BME280;40174;52.364;6.452;2024-02-26T08:40:11;100184.13;;;3.69;100.00
54262;BME280;40174;52.364;6.452;2024-02-26T08:42:38;100187.69;;;3.68;100.00
54262;BME280;40174;52.364;6.452;2024-02-26T08:45:07;100188.25;;;3.73;100.00
54262;BME280;40174;52.364;6.452;2024-02-26T08:47:34;100196.91;;;3.74;100.00
54262;BME280;40174;52.364;6.452;2024-02-26T08:50:03;100206.47;;;3.75;100.00
54262;BME280;40174;52.364;6.452;2024-02-26T08:52:30;100195.06;;;3.76;100.00
54262;BME280;40174;52.364;6.452;2024-02-26T08:54:57;100200.94;;;3.80;100.00
54262;BME280;40174;52.364;6.452;2024-02-26T08:57:25;100208.69;;;3.81;100.00
54262;BME280;40174;52.364;6.452;2024-02-26T08:59:52;100207.00;;;3.80;100.00
54262;BME280;40174;52.364;6.452;2024-02-26T09:02:18;100214.84;;;3.80;100.00
54262;BME280;40174;52.364;6.452;2024-02-26T09:04:46;100207.47;;;3.87;100.00
54262;BME280;40174;52.364;6.452;2024-02-26T09:07:12;100213.66;;;3.86;100.00
54262;BME280;40174;52.364;6.452;2024-02-26T09:09:39;100221.50;;;3.86;100.00
54262;BME280;40174;52.364;6.452;2024-02-26T09:12:06;100221.38;;;3.87;100.00
54262;BME280;40174;52.364;6.452;2024-02-26T09:14:34;100226.31;;;3.92;100.00
54262;BME280;40174;52.364;6.452;2024-02-26T09:17:00;100225.28;;;3.94;100.00
54262;BME280;40174;52.364;6.452;2024-02-26T09:19:27;100228.00;;;3.93;100.00
54262;BME280;40174;52.364;6.452;2024-02-26T09:21:53;100235.03;;;3.92;100.00
54262;BME280;40174;52.364;6.452;2024-02-26T09:24:23;100235.56;;;3.98;100.00
54262;BME280;40174;52.364;6.452;2024-02-26T09:26:49;100240.78;;;3.98;100.00
54262;BME280;40174;52.364;6.452;2024-02-26T09:29:16;100243.31;;;3.99;100.00
54262;BME280;40174;52.364;6.452;2024-02-26T09:31:45;100249.28;;;4.01;100.00
54262;BME280;40174;52.364;6.452;2024-02-26T09:34:12;100249.19;;;4.03;100.00
54262;BME280;40174;52.364;6.452;2024-02-26T09:36:39;100256.00;;;4.05;100.00
54262;BME280;40174;52.364;6.452;2024-02-26T09:39:06;100258.25;;;4.11;100.00
54262;BME280;40174;52.364;6.452;2024-02-26T09:41:37;100266.00;;;4.13;100.00
54262;BME280;40174;52.364;6.452;2024-02-26T09:44:04;100268.63;;;4.13;100.00
54262;BME280;40174;52.364;6.452;2024-02-26T09:46:31;100270.19;;;4.15;100.00
54262;BME280;40174;52.364;6.452;2024-02-26T09:48:59;100281.28;;;4.19;100.00
54262;BME280;40174;52.364;6.452;2024-02-26T09:51:26;100282.16;;;4.20;100.00
54262;BME280;40174;52.364;6.452;2024-02-26T09:53:54;100276.16;;;4.18;100.00
54262;BME280;40174;52.364;6.452;2024-02-26T09:56:21;100287.19;;;4.23;100.00
54262;BME280;40174;52.364;6.452;2024-02-26T09:58:48;100294.28;;;4.21;100.00
54262;BME280;40174;52.364;6.452;2024-02-26T10:01:19;100286.34;;;4.22;100.00
54262;BME280;40174;52.364;6.452;2024-02-26T10:03:52;100288.00;;;4.23;100.00
54262;BME280;40174;52.364;6.452;2024-02-26T10:06:22;100285.41;;;4.23;100.00
54262;BME280;40174;52.364;6.452;2024-02-26T10:08:50;100292.22;;;4.26;100.00
54262;BME280;40174;52.364;6.452;2024-02-26T10:11:17;100295.41;;;4.31;100.00
54262;BME280;40174;52.364;6.452;2024-02-26T10:13:44;100300.50;;;4.32;100.00
54262;BME280;40174;52.364;6.452;2024-02-26T10:16:11;100307.53;;;4.32;100.00
54262;BME280;40174;52.364;6.452;2024-02-26T10:18:47;100304.91;;;4.32;100.00
54262;BME280;40174;52.364;6.452;2024-02-26T10:21:16;100314.47;;;4.33;100.00
54262;BME280;40174;52.364;6.452;2024-02-26T10:23:45;100309.31;;;4.31;100.00
54262;BME280;40174;52.364;6.452;2024-02-26T10:26:13;100319.78;;;4.31;100.00
54262;BME280;40174;52.364;6.452;2024-02-26T10:28:41;100325.75;;;4.33;100.00
54262;BME280;40174;52.364;6.452;2024-02-26T10:31:08;100327.25;;;4.37;100.00
54262;BME280;40174;52.364;6.452;2024-02-26T10:33:36;100339.38;;;4.38;100.00
54262;BME280;40174;52.364;6.452;2024-02-26T10:36:03;100340.81;;;4.44;100.00
54262;BME280;40174;52.364;6.452;2024-02-26T10:38:30;100350.22;;;4.47;100.00
54262;BME280;40174;52.364;6.452;2024-02-26T10:40:59;100344.78;;;4.50;100.00
54262;BME280;40174;52.364;6.452;2024-02-26T10:43:27;100341.63;;;4.45;100.00
54262;BME280;40174;52.364;6.452;2024-02-26T10:45:54;100357.59;;;4.54;100.00
54262;BME280;40174;52.364;6.452;2024-02-26T10:48:22;100355.94;;;4.53;100.00
54262;BME280;40174;52.364;6.452;2024-02-26T10:50:49;100349.94;;;4.51;100.00
54262;BME280;40174;52.364;6.452;2024-02-26T10:53:19;100354.97;;;4.54;100.00
54262;BME280;40174;52.364;6.452;2024-02-26T10:55:48;100357.41;;;4.57;100.00
54262;BME280;40174;52.364;6.452;2024-02-26T10:58:17;100369.34;;;4.62;100.00
54262;BME280;40174;52.364;6.452;2024-02-26T11:00:45;100367.59;;;4.62;100.00
54262;BME280;40174;52.364;6.452;2024-02-26T11:03:14;100367.03;;;4.57;100.00
54262;BME280;40174;52.364;6.452;2024-02-26T11:05:43;100370.31;;;4.61;100.00
54262;BME280;40174;52.364;6.452;2024-02-26T11:08:11;100377.22;;;4.62;100.00
54262;BME280;40174;52.364;6.452;2024-02-26T11:10:38;100371.22;;;4.59;100.00
54262;BME280;40174;52.364;6.452;2024-02-26T11:13:06;100375.63;;;4.59;100.00
54262;BME280;40174;52.364;6.452;2024-02-26T11:15:37;100385.91;;;4.62;100.00
54262;BME280;40174;52.364;6.452;2024-02-26T11:18:04;100388.53;;;4.62;100.00
54262;BME280;40174;52.364;6.452;2024-02-26T11:20:32;100391.03;;;4.64;100.00
54262;BME280;40174;52.364;6.452;2024-02-26T11:22:59;100392.06;;;4.61;100.00
54262;BME280;40174;52.364;6.452;2024-02-26T11:25:26;100396.19;;;4.65;100.00
54262;BME280;40174;52.364;6.452;2024-02-26T11:27:56;100388.53;;;4.62;100.00
54262;BME280;40174;52.364;6.452;2024-02-26T11:30:25;100400.75;;;4.62;100.00
54262;BME280;40174;52.364;6.452;2024-02-26T11:32:54;100401.50;;;4.64;100.00
54262;BME280;40174;52.364;6.452;2024-02-26T11:35:21;100399.66;;;4.66;100.00
54262;BME280;40174;52.364;6.452;2024-02-26T11:37:53;100397.03;;;4.66;100.00
54262;BME280;40174;52.364;6.452;2024-02-26T11:40:22;100406.56;;;4.67;100.00
54262;BME280;40174;52.364;6.452;2024-02-26T11:42:49;100411.53;;;4.71;100.00
54262;BME280;40174;52.364;6.452;2024-02-26T11:45:47;100404.50;;;4.72;100.00
54262;BME280;40174;52.364;6.452;2024-02-26T11:48:19;100405.25;;;4.74;100.00
54262;BME280;40174;52.364;6.452;2024-02-26T11:50:48;100404.59;;;4.70;100.00
54262;BME280;40174;52.364;6.452;2024-02-26T11:53:22;100399.34;;;4.70;100.00
54262;BME280;40174;52.364;6.452;2024-02-26T11:59:00;100407.13;;;4.72;100.00
54262;BME280;40174;52.364;6.452;2024-02-26T12:01:51;100409.81;;;4.70;100.00
54262;BME280;40174;52.364;6.452;2024-02-26T12:04:21;100409.94;;;4.69;100.00
54262;BME280;40174;52.364;6.452;2024-02-26T12:06:51;100410.88;;;4.68;100.00
54262;BME280;40174;52.364;6.452;2024-02-26T12:09:32;100398.53;;;4.70;100.00
54262;BME280;40174;52.364;6.452;2024-02-26T12:11:59;100408.16;;;4.69;100.00
54262;BME280;40174;52.364;6.452;2024-02-26T12:14:27;100405.34;;;4.72;100.00
54262;BME280;40174;52.364;6.452;2024-02-26T12:16:55;100413.09;;;4.74;100.00
54262;BME280;40174;52.364;6.452;2024-02-26T12:19:24;100408.72;;;4.74;100.00
54262;BME280;40174;52.364;6.452;2024-02-26T12:21:52;100412.16;;;4.75;100.00
54262;BME280;40174;52.364;6.452;2024-02-26T12:24:20;100418.34;;;4.74;100.00
54262;BME280;40174;52.364;6.452;2024-02-26T12:26:47;100418.44;;;4.72;100.00
54262;BME280;40174;52.364;6.452;2024-02-26T12:29:14;100435.72;;;4.75;100.00
54262;BME280;40174;52.364;6.452;2024-02-26T12:31:41;100431.34;;;4.75;100.00
54262;BME280;40174;52.364;6.452;2024-02-26T12:34:08;100434.69;;;4.77;100.00
54262;BME280;40174;52.364;6.452;2024-02-26T12:36:37;100442.66;;;4.76;100.00
54262;BME280;40174;52.364;6.452;2024-02-26T12:39:05;100445.06;;;4.79;100.00
54262;BME280;40174;52.364;6.452;2024-02-26T12:41:32;100447.53;;;4.82;100.00
54262;BME280;40174;52.364;6.452;2024-02-26T12:44:00;100454.50;;;4.82;100.00
54262;BME280;40174;52.364;6.452;2024-02-26T12:46:27;100461.44;;;4.83;100.00
54262;BME280;40174;52.364;6.452;2024-02-26T12:48:55;100458.00;;;4.82;100.00
54262;BME280;40174;52.364;6.452;2024-02-26T12:51:24;100469.00;;;4.87;100.00
54262;BME280;40174;52.364;6.452;2024-02-26T12:53:52;100470.59;;;4.90;100.00
54262;BME280;40174;52.364;6.452;2024-02-26T12:56:20;100471.34;;;4.92;100.00
54262;BME280;40174;52.364;6.452;2024-02-26T12:58:48;100467.47;;;4.97;100.00